Hydropolis, Louisiana
Current Conditions -  °F | °C
As of 2:53 PM on Monday 22 Dec 2014 (Local Time) from KESF Reporting Station
Scattered Clouds Scattered Clouds  
Wind Chill: 69°   Ceiling: Unl
Heat Index: 69°   Visibility: 10mi
Dew Point: 60°   Wind: 9mph
Humidity: 73%   Direction: 190°S
Pressure: 29.61"   Gusts: NA
Location:  31.0649°N, 92.0567°W
Report Text: KESF 222053Z AUTO 19008KT 10SM SCT019 21/16 A2961 RMK AO2 SLP027 T02060156 56034
Loading
Personal Weather Stations






























Interactive Weather Map New forecast layout! Learn more

10-Day Weather Forecast

Advertisements
Track Severe Weather on mobile